CheckWX is a tool to help pilots better visualize weather data.  It is not intended as a substitute for an official pre-flight weather briefing.

08:21:14 UTC

EDTL TAF
Lahr Airport
Germany
TAF EDTL 220712Z 2208/2215 16003KT 9999 BKN025 BECMG 2208/2211 35005KT BECMG 2213/2215 05005KT

Feb-22@
08:00 UTC

Feb-22 @ 08:00 UTC

Feb-22@
15:00 UTC

Feb-22 @ 15:00 UTC

TAF EDTL 220712Z 2208/2215 16003KT 9999 BKN025
Wind
  • 160° at 3 KTS
Cloud Levels
  • Broken at 2,500' AGL

Feb-22@
08:00 UTC

Feb-22 @ 08:00 UTC

Feb-22@
13:00 UTC

Feb-22 @ 13:00 UTC

BECMG 2208/2211 35005KT

Becoming

BecomingConditions expected by Fri, Feb 22, 2019 @ 11:00 UTC

Wind
  • 350° at 5 KTS
Cloud Levels
  • Broken at 2,500' AGL

Feb-22@
13:00 UTC

Feb-22 @ 13:00 UTC

Feb-22@
15:00 UTC

Feb-22 @ 15:00 UTC

BECMG 2213/2215 05005KT

Becoming

BecomingConditions expected by Fri, Feb 22, 2019 @ 15:00 UTC

Wind
  • 050° at 5 KTS
Cloud Levels
  • Broken at 2,500' AGL